Time;durP1;ratioP1;P1;durP2;ratioP2;P2;SDS_P1;SDS_P2;PMS_P1;PMS_P2;Temp;Humidity;BMP_temperature;BMP_pressure;BME280_temperature;BME280_humidity;BME280_pressure;Samples;Min_cycle;Max_cycle;Signal;HPM_P1;HPM_P2
2023/07/17 03:12:36;;;;;;;2.17;1.03;;;;;;;;;;20922792;22;20236;-85
2023/07/17 03:22:43;;;;;;;2.10;1.00;;;;;;;;;;20808263;23;20689;-68
2023/07/17 03:32:44;;;;;;;2.67;0.87;;;;;;;;;;20759184;28;20279;-70
2023/07/17 03:42:48;;;;;;;1.00;0.70;;;;;;;;;;20760594;28;20234;-70
2023/07/17 03:52:50;;;;;;;1.37;0.70;;;;;;;;;;20748492;28;20234;-70
2023/07/17 04:02:52;;;;;;;1.93;0.93;;;;;;;;;;20771410;28;20644;-71
2023/07/17 04:13:09;;;;;;;2.23;0.93;;;;;;;;;;20788508;28;20247;-71
2023/07/17 04:23:12;;;;;;;2.87;0.87;;;;;;;;;;20776802;28;20648;-71
2023/07/17 04:33:19;;;;;;;1.63;0.90;;;;;;;;;;20795173;28;20222;-70
2023/07/17 04:43:22;;;;;;;2.00;0.90;;;21.20;99.90;;;;;;20777590;28;20228;-70
2023/07/17 04:53:25;;;;;;;1.67;0.83;;;;;;;;;;20744876;28;20300;-70
2023/07/17 05:03:27;;;;;;;2.07;0.77;;;;;;;;;;20702748;28;20226;-71
2023/07/17 05:13:30;;;;;;;1.73;1.00;;;;;;;;;;20761334;28;20225;-71
2023/07/17 05:23:34;;;;;;;2.10;0.80;;;;;;;;;;20761316;28;20245;-69
2023/07/17 05:33:37;;;;;;;1.77;0.67;;;;;;;;;;20761550;28;20207;-68
2023/07/17 05:43:39;;;;;;;2.23;1.00;;;;;;;;;;20782823;28;20280;-69
2023/07/17 05:53:48;;;;;;;2.13;0.90;;;;;;;;;;20769551;28;20267;-69
2023/07/17 06:03:50;;;;;;;1.70;0.87;;;;;;;;;;20770484;28;20225;-69
2023/07/17 06:13:52;;;;;;;3.67;0.80;;;;;;;;;;20770529;28;20252;-69
2023/07/17 06:23:53;;;;;;;2.43;1.00;;;;;;;;;;20776409;28;20226;-69
2023/07/17 06:33:55;;;;;;;1.60;0.97;;;;;;;;;;20769495;28;20216;-69
2023/07/17 06:43:57;;;;;;;4.70;1.00;;;;;;;;;;20713474;28;20239;-70
2023/07/17 06:53:59;;;;;;;1.77;0.90;;;;;;;;;;20703366;28;20234;-69
2023/07/17 07:04:02;;;;;;;1.53;0.87;;;;;;;;;;20752444;28;20798;-69
2023/07/17 07:14:03;;;;;;;2.42;0.90;;;;;;;;;;20739686;28;20217;-70
2023/07/17 07:24:05;;;;;;;1.93;0.80;;;23.20;99.90;;;;;;20747516;28;20237;-69
2023/07/17 07:34:07;;;;;;;1.65;0.95;;;;;;;;;;20849080;28;20278;-69
2023/07/17 07:44:09;;;;;;;4.35;1.00;;;;;;;;;;20848747;28;20226;-69
2023/07/17 07:54:11;;;;;;;2.25;1.05;;;;;;;;;;20857268;28;20324;-71
2023/07/17 08:04:12;;;;;;;1.33;0.65;;;;;;;;;;20861925;28;20219;-70
2023/07/17 08:14:15;;;;;;;1.52;0.77;;;;;;;;;;20829455;28;20232;-70
2023/07/17 08:24:17;;;;;;;1.90;0.68;;;;;;;;;;20877811;28;20300;-70
2023/07/17 08:34:20;;;;;;;1.20;0.77;;;;;;;;;;20861395;28;20208;-69
2023/07/17 08:44:22;;;;;;;1.13;0.80;;;;;;;;;;20859768;28;20229;-69
2023/07/17 08:54:24;;;;;;;3.53;0.90;;;;;;;;;;20859351;28;20220;-70
2023/07/17 09:04:26;;;;;;;1.67;0.90;;;;;;;;;;20855753;28;20280;-70
2023/07/17 09:14:28;;;;;;;1.88;0.60;;;;;;;;;;20843479;28;20251;-70
2023/07/17 09:24:33;;;;;;;1.67;0.90;;;25.60;92.70;;;;;;20856768;28;20227;-70
2023/07/17 09:34:35;;;;;;;1.23;0.77;;;;;;;;;;20888381;28;20281;-69
2023/07/17 09:44:38;;;;;;;3.10;1.58;;;;;;;;;;20855014;28;20222;-69
2023/07/17 09:54:42;;;;;;;1.98;1.10;;;;;;;;;;20798432;28;20218;-69
2023/07/17 10:04:46;;;;;;;4.78;1.30;;;;;;;;;;20790850;28;20610;-69
2023/07/17 10:14:49;;;;;;;4.00;1.15;;;;;;;;;;20816770;28;20214;-69
2023/07/17 10:24:51;;;;;;;2.17;0.73;;;;;;;;;;20884393;28;20228;-69
2023/07/17 10:34:54;;;;;;;1.27;0.68;;;;;;;;;;20851248;28;20270;-69
2023/07/17 10:45:07;;;;;;;1.90;0.85;;;;;;;;;;20851253;28;20220;-70
2023/07/17 10:55:09;;;;;;;3.47;0.82;;;;;;;;;;20867279;28;20271;-68
2023/07/17 11:05:11;;;;;;;2.70;1.42;;;;;;;;;;20841697;28;20701;-69
2023/07/17 11:15:21;;;;;;;1.95;1.00;;;;;;;;;;20817761;28;20280;-69
2023/07/17 11:25:28;;;;;;;2.58;0.65;;;27.80;77.80;;;;;;20853728;28;20230;-69
2023/07/17 11:35:40;;;;;;;1.48;0.68;;;;;;;;;;20866722;28;20715;-69
2023/07/17 11:45:42;;;;;;;1.85;0.60;;;;;;;;;;20864756;28;20698;-69
2023/07/17 11:55:44;;;;;;;1.73;0.52;;;28.50;75.50;;;;;;20864558;28;20758;-70
2023/07/17 12:05:47;;;;;;;2.75;0.47;;;;;;;;;;20848836;28;20298;-70
2023/07/17 12:15:50;;;;;;;1.70;0.60;;;;;;;;;;20827488;28;20266;-70
2023/07/17 12:25:52;;;;;;;0.95;0.57;;;;;;;;;;20858689;28;20687;-70
2023/07/17 12:35:54;;;;;;;1.05;0.50;;;;;;;;;;20876482;28;20255;-69
2023/07/17 12:45:56;;;;;;;1.10;0.60;;;;;;;;;;20860281;28;20228;-72
2023/07/17 12:55:58;;;;;;;1.20;0.50;;;28.90;68.80;;;;;;20840244;28;20252;-71
2023/07/17 13:06:00;;;;;;;3.70;0.63;;;;;;;;;;20829027;28;20267;-72
2023/07/17 13:16:02;;;;;;;1.25;0.50;;;;;;;;;;20856583;28;20271;-73
2023/07/17 13:26:04;;;;;;;1.08;0.43;;;;;;;;;;20818497;28;20233;-73
2023/07/17 13:36:08;;;;;;;1.42;0.60;;;;;;;;;;20802670;28;20222;-73
2023/07/17 13:46:12;;;;;;;0.50;0.32;;;29.00;72.70;;;;;;20853586;28;20318;-72
2023/07/17 13:56:20;;;;;;;8.68;1.67;;;;;;;;;;20820681;28;20206;-72
2023/07/17 14:06:36;;;;;;;3.88;1.02;;;;;;;;;;20792666;28;20218;-72
2023/07/17 14:16:37;;;;;;;0.98;0.60;;;;;;;;;;20825177;28;20825;-72
2023/07/17 14:26:39;;;;;;;0.50;0.30;;;;;;;;;;20846138;28;20229;-73
2023/07/17 14:36:41;;;;;;;2.33;0.40;;;;;;;;;;20826817;28;20593;-72
2023/07/17 14:46:43;;;;;;;1.95;0.63;;;;;;;;;;20808728;28;20693;-72
2023/07/17 14:56:45;;;;;;;1.70;0.60;;;;;;;;;;20797300;28;20294;-73
2023/07/17 15:06:47;;;;;;;0.60;0.40;;;;;;;;;;20858666;28;20327;-72
2023/07/17 15:16:50;;;;;;;1.77;0.50;;;30.70;62.00;;;;;;20860787;28;20303;-73
2023/07/17 15:26:52;;;;;;;0.93;0.43;;;;;;;;;;20859644;28;20233;-73
2023/07/17 15:36:54;;;;;;;0.43;0.30;;;;;;;;;;20860268;28;20219;-72
2023/07/17 15:46:56;;;;;;;3.35;0.88;;;;;;;;;;20823104;28;20263;-71
2023/07/17 15:56:58;;;;;;;1.95;0.52;;;;;;;;;;20835630;28;20238;-71
2023/07/17 16:07:00;;;;;;;4.38;0.90;;;;;;;;;;20826073;28;20601;-71
2023/07/17 16:17:02;;;;;;;0.98;0.40;;;;;;;;;;20830293;28;20295;-71
2023/07/17 16:27:04;;;;;;;1.33;0.40;;;;;;;;;;20773405;28;20253;-72
2023/07/17 16:37:06;;;;;;;0.85;0.43;;;;;;;;;;20771468;28;20265;-74
2023/07/17 16:47:08;;;;;;;1.02;0.50;;;;;;;;;;20772597;28;20273;-70
2023/07/17 16:57:10;;;;;;;1.13;0.40;;;;;;;;;;20776365;28;20222;-71
2023/07/17 17:07:12;;;;;;;3.25;0.68;;;;;;;;;;20786786;28;20229;-71
2023/07/17 17:17:14;;;;;;;1.33;0.50;;;;;;;;;;20761891;28;20362;-71
2023/07/17 17:27:16;;;;;;;0.75;0.38;;;;;;;;;;20765022;28;20230;-71
2023/07/17 17:37:18;;;;;;;1.25;0.40;;;;;;;;;;20746502;28;20271;-71
2023/07/17 17:47:20;;;;;;;0.63;0.30;;;;;;;;;;20768072;28;20259;-71
2023/07/17 17:57:23;;;;;;;1.20;0.43;;;;;;;;;;20729420;28;20757;-71
2023/07/17 18:07:25;;;;;;;0.75;0.30;;;;;;;;;;20745046;28;20287;-71
2023/07/17 18:17:27;;;;;;;0.50;0.30;;;;;;;;;;20709918;28;20589;-71
2023/07/17 18:27:29;;;;;;;0.60;0.30;;;;;;;;;;20688811;28;20588;-71
2023/07/17 18:37:32;;;;;;;1.05;0.40;;;;;;;;;;20734832;28;20716;-71
2023/07/17 18:47:34;;;;;;;1.42;0.30;;;;;;;;;;20739110;28;20232;-72
2023/07/17 18:57:36;;;;;;;0.63;0.30;;;;;;;;;;20759711;28;20689;-71
2023/07/17 19:07:38;;;;;;;0.93;0.32;;;;;;;;;;20721867;28;20221;-71
2023/07/17 19:17:39;;;;;;;0.30;0.30;;;;;;;;;;20741925;28;20226;-72
2023/07/17 19:27:41;;;;;;;0.47;0.30;;;;;;;;;;20754266;28;20229;-71
2023/07/17 19:37:44;;;;;;;2.67;0.30;;;;;;;;;;20775078;28;20249;-72
2023/07/17 19:47:45;;;;;;;0.40;0.22;;;;;;;;;;20754621;28;20283;-72
2023/07/17 19:57:47;;;;;;;0.28;0.25;;;;;;;;;;20764556;28;20270;-72
2023/07/17 20:07:49;;;;;;;0.88;0.43;;;;;;;;;;20782947;28;20256;-72
2023/07/17 20:17:51;;;;;;;1.40;0.40;;;;;;;;;;20781067;28;20216;-72
2023/07/17 20:27:52;;;;;;;0.52;0.30;;;;;;;;;;20831909;28;20232;-71
2023/07/17 20:37:54;;;;;;;0.88;0.30;;;;;;;;;;20874481;28;20278;-72
2023/07/17 20:47:57;;;;;;;1.00;0.30;;;25.70;81.00;;;;;;20857133;28;20273;-72
2023/07/17 20:57:59;;;;;;;0.43;0.30;;;;;;;;;;20871641;28;20272;-72
2023/07/17 21:08:00;;;;;;;3.17;0.43;;;;;;;;;;20844395;28;20219;-73
2023/07/17 21:18:03;;;;;;;0.85;0.30;;;;;;;;;;20827468;28;20268;-72
2023/07/17 21:28:06;;;;;;;1.25;0.60;;;;;;;;;;20709493;28;20233;-72
2023/07/17 21:38:09;;;;;;;1.83;0.80;;;;;;;;;;20773888;28;20255;-72
2023/07/17 21:48:11;;;;;;;2.17;0.90;;;;;;;;;;20789536;28;20243;-72
2023/07/17 21:58:12;;;;;;;1.88;0.55;;;;;;;;;;20771930;28;20618;-72
2023/07/17 22:08:15;;;;;;;0.80;0.45;;;;;;;;;;20737029;28;20295;-72
2023/07/17 22:18:17;;;;;;;0.95;0.52;;;;;;;;;;20734600;28;20233;-72
2023/07/17 22:28:20;;;;;;;0.57;0.30;;;;;;;;;;20736789;28;20295;-72
2023/07/17 22:38:22;;;;;;;0.50;0.40;;;;;;;;;;20741181;28;20256;-72
2023/07/17 22:48:27;;;;;;;0.63;0.30;;;;;;;;;;20776325;28;20292;-72
2023/07/17 22:58:29;;;;;;;2.20;0.40;;;;;;;;;;20773190;28;20224;-72
2023/07/17 23:08:31;;;;;;;2.25;0.70;;;;;;;;;;20713871;28;20540;-72
2023/07/17 23:18:33;;;;;;;0.50;0.40;;;;;;;;;;20746023;28;20228;-72
2023/07/17 23:28:36;;;;;;;1.35;0.40;;;;;;;;;;20799801;28;20556;-72
2023/07/17 23:38:38;;;;;;;1.13;0.65;;;;;;;;;;20718268;28;21037;-72
2023/07/17 23:48:40;;;;;;;0.57;0.30;;;;;;;;;;20717264;28;20212;-72
2023/07/17 23:58:42;;;;;;;0.98;0.60;;;;;;;;;;20733102;28;20367;-72
